sensor_id;sensor_type;location;lat;lon;timestamp;P1;durP1;ratioP1;P2;durP2;ratioP2
15629;SDS011;7914;50.842;0.166;2023-01-26T00:00:27;3.30;;;3.20;;
15629;SDS011;7914;50.842;0.166;2023-01-26T00:02:52;3.40;;;3.30;;
15629;SDS011;7914;50.842;0.166;2023-01-26T00:05:18;3.10;;;3.00;;
15629;SDS011;7914;50.842;0.166;2023-01-26T00:07:44;2.90;;;2.80;;
15629;SDS011;7914;50.842;0.166;2023-01-26T00:10:12;2.70;;;2.60;;
15629;SDS011;7914;50.842;0.166;2023-01-26T00:12:39;3.03;;;2.93;;
15629;SDS011;7914;50.842;0.166;2023-01-26T00:15:05;2.80;;;2.70;;
15629;SDS011;7914;50.842;0.166;2023-01-26T00:17:31;2.60;;;2.50;;
15629;SDS011;7914;50.842;0.166;2023-01-26T00:19:57;2.70;;;2.60;;
15629;SDS011;7914;50.842;0.166;2023-01-26T00:22:24;2.63;;;2.53;;
15629;SDS011;7914;50.842;0.166;2023-01-26T00:24:51;2.70;;;2.60;;
15629;SDS011;7914;50.842;0.166;2023-01-26T00:27:16;2.50;;;2.40;;
15629;SDS011;7914;50.842;0.166;2023-01-26T00:29:42;2.50;;;2.40;;
15629;SDS011;7914;50.842;0.166;2023-01-26T00:32:08;2.90;;;2.80;;
15629;SDS011;7914;50.842;0.166;2023-01-26T00:34:33;2.73;;;2.63;;
15629;SDS011;7914;50.842;0.166;2023-01-26T00:36:59;2.90;;;2.80;;
15629;SDS011;7914;50.842;0.166;2023-01-26T00:39:25;2.40;;;2.30;;
15629;SDS011;7914;50.842;0.166;2023-01-26T00:41:51;2.80;;;2.70;;
15629;SDS011;7914;50.842;0.166;2023-01-26T00:44:34;2.73;;;2.63;;
15629;SDS011;7914;50.842;0.166;2023-01-26T00:47:01;2.80;;;2.70;;
15629;SDS011;7914;50.842;0.166;2023-01-26T00:49:27;2.50;;;2.40;;
15629;SDS011;7914;50.842;0.166;2023-01-26T00:51:52;2.90;;;2.80;;
15629;SDS011;7914;50.842;0.166;2023-01-26T00:54:18;2.90;;;2.80;;
15629;SDS011;7914;50.842;0.166;2023-01-26T00:56:44;2.90;;;2.80;;
15629;SDS011;7914;50.842;0.166;2023-01-26T00:59:10;3.00;;;2.90;;
15629;SDS011;7914;50.842;0.166;2023-01-26T01:01:35;3.00;;;2.90;;
15629;SDS011;7914;50.842;0.166;2023-01-26T01:04:01;2.90;;;2.80;;
15629;SDS011;7914;50.842;0.166;2023-01-26T01:06:27;2.80;;;2.70;;
15629;SDS011;7914;50.842;0.166;2023-01-26T01:08:53;3.00;;;2.90;;
15629;SDS011;7914;50.842;0.166;2023-01-26T01:11:18;2.90;;;2.80;;
15629;SDS011;7914;50.842;0.166;2023-01-26T01:13:44;3.30;;;3.20;;
15629;SDS011;7914;50.842;0.166;2023-01-26T01:16:11;3.50;;;3.40;;
15629;SDS011;7914;50.842;0.166;2023-01-26T01:18:38;2.93;;;2.83;;
15629;SDS011;7914;50.842;0.166;2023-01-26T01:21:04;3.07;;;2.97;;
15629;SDS011;7914;50.842;0.166;2023-01-26T01:23:31;3.00;;;2.90;;
15629;SDS011;7914;50.842;0.166;2023-01-26T01:25:58;2.90;;;2.80;;
15629;SDS011;7914;50.842;0.166;2023-01-26T01:28:24;2.90;;;2.80;;
15629;SDS011;7914;50.842;0.166;2023-01-26T01:30:50;2.80;;;2.70;;
15629;SDS011;7914;50.842;0.166;2023-01-26T01:33:15;3.00;;;2.90;;
15629;SDS011;7914;50.842;0.166;2023-01-26T01:35:41;2.40;;;2.30;;
15629;SDS011;7914;50.842;0.166;2023-01-26T01:38:07;2.80;;;2.70;;
15629;SDS011;7914;50.842;0.166;2023-01-26T01:40:32;2.53;;;2.43;;
15629;SDS011;7914;50.842;0.166;2023-01-26T01:42:58;2.20;;;2.10;;
15629;SDS011;7914;50.842;0.166;2023-01-26T01:47:51;2.63;;;2.53;;
15629;SDS011;7914;50.842;0.166;2023-01-26T01:50:22;2.60;;;2.50;;
15629;SDS011;7914;50.842;0.166;2023-01-26T01:52:50;2.57;;;2.47;;
15629;SDS011;7914;50.842;0.166;2023-01-26T01:55:17;2.77;;;2.67;;
15629;SDS011;7914;50.842;0.166;2023-01-26T01:57:52;2.70;;;2.60;;
15629;SDS011;7914;50.842;0.166;2023-01-26T02:00:22;2.60;;;2.50;;
15629;SDS011;7914;50.842;0.166;2023-01-26T02:02:50;2.87;;;2.77;;
15629;SDS011;7914;50.842;0.166;2023-01-26T02:08:20;3.00;;;2.90;;
15629;SDS011;7914;50.842;0.166;2023-01-26T02:10:52;3.20;;;3.10;;
15629;SDS011;7914;50.842;0.166;2023-01-26T02:13:20;2.90;;;2.80;;
15629;SDS011;7914;50.842;0.166;2023-01-26T02:15:48;3.03;;;2.93;;
15629;SDS011;7914;50.842;0.166;2023-01-26T02:18:15;2.90;;;2.80;;
15629;SDS011;7914;50.842;0.166;2023-01-26T02:26:15;2.70;;;2.60;;
15629;SDS011;7914;50.842;0.166;2023-01-26T02:28:46;3.00;;;2.90;;
15629;SDS011;7914;50.842;0.166;2023-01-26T02:31:12;2.83;;;2.73;;
15629;SDS011;7914;50.842;0.166;2023-01-26T02:33:39;3.00;;;2.90;;
15629;SDS011;7914;50.842;0.166;2023-01-26T02:36:06;3.17;;;3.07;;
15629;SDS011;7914;50.842;0.166;2023-01-26T02:38:39;2.90;;;2.80;;
15629;SDS011;7914;50.842;0.166;2023-01-26T02:41:08;2.93;;;2.83;;
15629;SDS011;7914;50.842;0.166;2023-01-26T02:43:37;2.80;;;2.70;;
15629;SDS011;7914;50.842;0.166;2023-01-26T02:46:03;2.80;;;2.70;;
15629;SDS011;7914;50.842;0.166;2023-01-26T02:48:29;3.00;;;2.90;;
15629;SDS011;7914;50.842;0.166;2023-01-26T02:51:13;2.87;;;2.77;;
15629;SDS011;7914;50.842;0.166;2023-01-26T02:53:39;2.70;;;2.60;;
15629;SDS011;7914;50.842;0.166;2023-01-26T02:56:05;3.00;;;2.90;;
15629;SDS011;7914;50.842;0.166;2023-01-26T02:58:30;2.70;;;2.60;;
15629;SDS011;7914;50.842;0.166;2023-01-26T03:00:56;2.83;;;2.73;;
15629;SDS011;7914;50.842;0.166;2023-01-26T03:03:23;2.47;;;2.37;;
15629;SDS011;7914;50.842;0.166;2023-01-26T03:05:50;2.70;;;2.60;;
15629;SDS011;7914;50.842;0.166;2023-01-26T03:08:17;2.30;;;2.20;;
15629;SDS011;7914;50.842;0.166;2023-01-26T03:10:43;2.10;;;2.00;;
15629;SDS011;7914;50.842;0.166;2023-01-26T03:13:11;2.50;;;2.40;;
15629;SDS011;7914;50.842;0.166;2023-01-26T03:15:37;2.30;;;2.20;;
15629;SDS011;7914;50.842;0.166;2023-01-26T03:18:16;2.23;;;2.13;;
15629;SDS011;7914;50.842;0.166;2023-01-26T03:21:08;1.70;;;1.70;;
15629;SDS011;7914;50.842;0.166;2023-01-26T03:23:56;2.13;;;2.03;;
15629;SDS011;7914;50.842;0.166;2023-01-26T03:26:40;2.40;;;2.30;;
15629;SDS011;7914;50.842;0.166;2023-01-26T03:29:25;2.03;;;1.93;;
15629;SDS011;7914;50.842;0.166;2023-01-26T03:31:51;2.40;;;2.30;;
15629;SDS011;7914;50.842;0.166;2023-01-26T03:34:17;2.17;;;2.07;;
15629;SDS011;7914;50.842;0.166;2023-01-26T03:36:44;2.13;;;2.03;;
15629;SDS011;7914;50.842;0.166;2023-01-26T03:39:11;2.20;;;2.10;;
15629;SDS011;7914;50.842;0.166;2023-01-26T03:41:57;2.30;;;2.20;;
15629;SDS011;7914;50.842;0.166;2023-01-26T03:44:42;2.50;;;2.40;;
15629;SDS011;7914;50.842;0.166;2023-01-26T03:47:26;2.30;;;2.20;;
15629;SDS011;7914;50.842;0.166;2023-01-26T03:50:10;2.37;;;2.27;;
15629;SDS011;7914;50.842;0.166;2023-01-26T03:52:55;2.90;;;2.80;;
15629;SDS011;7914;50.842;0.166;2023-01-26T03:55:39;2.60;;;2.50;;
15629;SDS011;7914;50.842;0.166;2023-01-26T03:58:24;2.60;;;2.50;;
15629;SDS011;7914;50.842;0.166;2023-01-26T04:00:53;2.40;;;2.30;;
15629;SDS011;7914;50.842;0.166;2023-01-26T04:03:20;2.40;;;2.30;;
15629;SDS011;7914;50.842;0.166;2023-01-26T04:06:04;2.50;;;2.40;;
15629;SDS011;7914;50.842;0.166;2023-01-26T04:08:48;2.67;;;2.57;;
15629;SDS011;7914;50.842;0.166;2023-01-26T04:11:14;2.43;;;2.33;;
15629;SDS011;7914;50.842;0.166;2023-01-26T04:13:40;2.60;;;2.50;;
15629;SDS011;7914;50.842;0.166;2023-01-26T04:16:24;2.50;;;2.40;;
15629;SDS011;7914;50.842;0.166;2023-01-26T04:19:08;2.50;;;2.40;;
15629;SDS011;7914;50.842;0.166;2023-01-26T04:21:52;2.50;;;2.40;;
15629;SDS011;7914;50.842;0.166;2023-01-26T04:24:18;2.70;;;2.60;;
15629;SDS011;7914;50.842;0.166;2023-01-26T04:26:46;2.40;;;2.30;;
15629;SDS011;7914;50.842;0.166;2023-01-26T04:29:13;2.70;;;2.60;;
15629;SDS011;7914;50.842;0.166;2023-01-26T04:31:40;2.60;;;2.50;;
15629;SDS011;7914;50.842;0.166;2023-01-26T04:34:09;2.60;;;2.50;;
15629;SDS011;7914;50.842;0.166;2023-01-26T04:36:36;2.50;;;2.40;;
15629;SDS011;7914;50.842;0.166;2023-01-26T04:39:02;2.60;;;2.50;;
15629;SDS011;7914;50.842;0.166;2023-01-26T04:41:29;2.63;;;2.53;;
15629;SDS011;7914;50.842;0.166;2023-01-26T04:43:55;2.63;;;2.53;;
15629;SDS011;7914;50.842;0.166;2023-01-26T04:46:21;2.47;;;2.37;;
15629;SDS011;7914;50.842;0.166;2023-01-26T04:48:47;2.40;;;2.30;;
15629;SDS011;7914;50.842;0.166;2023-01-26T04:51:14;2.77;;;2.67;;
15629;SDS011;7914;50.842;0.166;2023-01-26T04:53:41;2.87;;;2.77;;
15629;SDS011;7914;50.842;0.166;2023-01-26T04:56:08;2.30;;;2.20;;
15629;SDS011;7914;50.842;0.166;2023-01-26T04:58:44;2.50;;;2.40;;
15629;SDS011;7914;50.842;0.166;2023-01-26T05:01:10;1.93;;;1.90;;
15629;SDS011;7914;50.842;0.166;2023-01-26T05:03:35;2.40;;;2.30;;
15629;SDS011;7914;50.842;0.166;2023-01-26T05:06:02;2.30;;;2.20;;
15629;SDS011;7914;50.842;0.166;2023-01-26T05:08:27;1.90;;;1.90;;
15629;SDS011;7914;50.842;0.166;2023-01-26T05:10:53;2.10;;;2.00;;
15629;SDS011;7914;50.842;0.166;2023-01-26T05:13:19;2.00;;;1.90;;
15629;SDS011;7914;50.842;0.166;2023-01-26T05:15:45;2.20;;;2.10;;
15629;SDS011;7914;50.842;0.166;2023-01-26T05:18:11;2.17;;;2.07;;
15629;SDS011;7914;50.842;0.166;2023-01-26T05:20:37;2.40;;;2.30;;
15629;SDS011;7914;50.842;0.166;2023-01-26T05:23:03;2.07;;;1.97;;
15629;SDS011;7914;50.842;0.166;2023-01-26T05:25:29;2.10;;;2.00;;
15629;SDS011;7914;50.842;0.166;2023-01-26T05:27:54;2.10;;;2.00;;
15629;SDS011;7914;50.842;0.166;2023-01-26T05:30:20;2.07;;;1.97;;
15629;SDS011;7914;50.842;0.166;2023-01-26T05:32:46;1.97;;;1.90;;
15629;SDS011;7914;50.842;0.166;2023-01-26T05:35:12;1.80;;;1.80;;
15629;SDS011;7914;50.842;0.166;2023-01-26T05:37:37;2.00;;;1.90;;
15629;SDS011;7914;50.842;0.166;2023-01-26T05:40:03;2.20;;;2.10;;
15629;SDS011;7914;50.842;0.166;2023-01-26T05:42:29;2.17;;;2.07;;
15629;SDS011;7914;50.842;0.166;2023-01-26T05:44:55;2.07;;;1.97;;
15629;SDS011;7914;50.842;0.166;2023-01-26T05:47:20;2.17;;;2.07;;
15629;SDS011;7914;50.842;0.166;2023-01-26T05:49:46;1.97;;;1.90;;
15629;SDS011;7914;50.842;0.166;2023-01-26T05:52:13;2.20;;;2.10;;
15629;SDS011;7914;50.842;0.166;2023-01-26T05:54:40;2.47;;;2.37;;
15629;SDS011;7914;50.842;0.166;2023-01-26T05:57:06;2.23;;;2.13;;
15629;SDS011;7914;50.842;0.166;2023-01-26T05:59:33;2.53;;;2.43;;
15629;SDS011;7914;50.842;0.166;2023-01-26T06:01:59;2.20;;;2.10;;
15629;SDS011;7914;50.842;0.166;2023-01-26T06:04:25;2.30;;;2.20;;
15629;SDS011;7914;50.842;0.166;2023-01-26T06:06:51;2.40;;;2.30;;
15629;SDS011;7914;50.842;0.166;2023-01-26T06:09:18;2.73;;;2.63;;
15629;SDS011;7914;50.842;0.166;2023-01-26T06:11:44;2.43;;;2.33;;
15629;SDS011;7914;50.842;0.166;2023-01-26T06:14:10;2.30;;;2.20;;
15629;SDS011;7914;50.842;0.166;2023-01-26T06:16:36;2.43;;;2.33;;
15629;SDS011;7914;50.842;0.166;2023-01-26T06:19:02;2.40;;;2.30;;
15629;SDS011;7914;50.842;0.166;2023-01-26T06:21:29;2.60;;;2.50;;
15629;SDS011;7914;50.842;0.166;2023-01-26T06:23:55;2.60;;;2.50;;
15629;SDS011;7914;50.842;0.166;2023-01-26T06:26:21;2.77;;;2.67;;
15629;SDS011;7914;50.842;0.166;2023-01-26T06:28:48;3.20;;;3.10;;
15629;SDS011;7914;50.842;0.166;2023-01-26T06:31:14;2.80;;;2.70;;
15629;SDS011;7914;50.842;0.166;2023-01-26T06:33:40;2.50;;;2.40;;
15629;SDS011;7914;50.842;0.166;2023-01-26T06:36:07;2.73;;;2.63;;
15629;SDS011;7914;50.842;0.166;2023-01-26T06:38:37;2.80;;;2.70;;
15629;SDS011;7914;50.842;0.166;2023-01-26T06:41:09;2.90;;;2.80;;
15629;SDS011;7914;50.842;0.166;2023-01-26T06:43:34;2.67;;;2.57;;
15629;SDS011;7914;50.842;0.166;2023-01-26T06:46:00;3.00;;;2.90;;
15629;SDS011;7914;50.842;0.166;2023-01-26T06:48:28;2.93;;;2.83;;
15629;SDS011;7914;50.842;0.166;2023-01-26T06:50:57;2.80;;;2.70;;
15629;SDS011;7914;50.842;0.166;2023-01-26T06:53:53;2.83;;;2.73;;
15629;SDS011;7914;50.842;0.166;2023-01-26T06:56:23;3.20;;;3.10;;
15629;SDS011;7914;50.842;0.166;2023-01-26T06:58:49;2.77;;;2.67;;
15629;SDS011;7914;50.842;0.166;2023-01-26T07:01:19;2.90;;;2.80;;
15629;SDS011;7914;50.842;0.166;2023-01-26T07:03:49;2.77;;;2.67;;
15629;SDS011;7914;50.842;0.166;2023-01-26T07:06:16;3.17;;;3.07;;
15629;SDS011;7914;50.842;0.166;2023-01-26T07:08:42;2.87;;;2.77;;
15629;SDS011;7914;50.842;0.166;2023-01-26T07:11:08;3.10;;;3.00;;
15629;SDS011;7914;50.842;0.166;2023-01-26T07:13:35;2.80;;;2.70;;
15629;SDS011;7914;50.842;0.166;2023-01-26T07:16:01;2.77;;;2.67;;
15629;SDS011;7914;50.842;0.166;2023-01-26T07:18:31;2.70;;;2.60;;
15629;SDS011;7914;50.842;0.166;2023-01-26T07:21:01;2.87;;;2.77;;
15629;SDS011;7914;50.842;0.166;2023-01-26T07:23:27;2.63;;;2.53;;
15629;SDS011;7914;50.842;0.166;2023-01-26T07:25:53;3.03;;;2.93;;
15629;SDS011;7914;50.842;0.166;2023-01-26T07:28:19;2.83;;;2.73;;
15629;SDS011;7914;50.842;0.166;2023-01-26T07:30:44;2.77;;;2.67;;
15629;SDS011;7914;50.842;0.166;2023-01-26T07:33:10;2.63;;;2.53;;
15629;SDS011;7914;50.842;0.166;2023-01-26T07:35:36;2.80;;;2.70;;
15629;SDS011;7914;50.842;0.166;2023-01-26T07:38:05;2.67;;;2.57;;
15629;SDS011;7914;50.842;0.166;2023-01-26T07:40:31;2.83;;;2.73;;
15629;SDS011;7914;50.842;0.166;2023-01-26T07:42:58;2.60;;;2.50;;
15629;SDS011;7914;50.842;0.166;2023-01-26T07:45:24;2.80;;;2.70;;
15629;SDS011;7914;50.842;0.166;2023-01-26T07:47:54;2.50;;;2.40;;
15629;SDS011;7914;50.842;0.166;2023-01-26T07:50:20;2.80;;;2.70;;
15629;SDS011;7914;50.842;0.166;2023-01-26T07:52:46;2.40;;;2.30;;
15629;SDS011;7914;50.842;0.166;2023-01-26T07:55:12;2.43;;;2.33;;
15629;SDS011;7914;50.842;0.166;2023-01-26T07:57:39;2.50;;;2.40;;
15629;SDS011;7914;50.842;0.166;2023-01-26T08:00:05;1.90;;;1.90;;
15629;SDS011;7914;50.842;0.166;2023-01-26T08:02:32;2.40;;;2.30;;
15629;SDS011;7914;50.842;0.166;2023-01-26T08:04:58;2.20;;;2.10;;
15629;SDS011;7914;50.842;0.166;2023-01-26T08:07:24;2.30;;;2.20;;
15629;SDS011;7914;50.842;0.166;2023-01-26T08:09:50;2.40;;;2.30;;
15629;SDS011;7914;50.842;0.166;2023-01-26T08:12:16;2.30;;;2.20;;
15629;SDS011;7914;50.842;0.166;2023-01-26T08:14:42;1.80;;;1.80;;
15629;SDS011;7914;50.842;0.166;2023-01-26T08:17:08;1.90;;;1.80;;
15629;SDS011;7914;50.842;0.166;2023-01-26T08:19:33;2.30;;;2.20;;
15629;SDS011;7914;50.842;0.166;2023-01-26T08:21:59;2.40;;;2.30;;
15629;SDS011;7914;50.842;0.166;2023-01-26T08:24:24;2.20;;;2.10;;
15629;SDS011;7914;50.842;0.166;2023-01-26T08:26:52;2.07;;;1.97;;
15629;SDS011;7914;50.842;0.166;2023-01-26T08:29:18;2.10;;;2.00;;
15629;SDS011;7914;50.842;0.166;2023-01-26T08:31:45;2.40;;;2.30;;
15629;SDS011;7914;50.842;0.166;2023-01-26T08:34:10;2.20;;;2.10;;
15629;SDS011;7914;50.842;0.166;2023-01-26T08:36:37;1.90;;;1.90;;
15629;SDS011;7914;50.842;0.166;2023-01-26T08:39:03;2.27;;;2.17;;
15629;SDS011;7914;50.842;0.166;2023-01-26T08:41:29;2.03;;;1.93;;
15629;SDS011;7914;50.842;0.166;2023-01-26T08:43:55;2.30;;;2.20;;
15629;SDS011;7914;50.842;0.166;2023-01-26T08:46:23;2.00;;;1.90;;
15629;SDS011;7914;50.842;0.166;2023-01-26T08:48:49;2.10;;;2.00;;
15629;SDS011;7914;50.842;0.166;2023-01-26T08:51:15;2.43;;;2.33;;
15629;SDS011;7914;50.842;0.166;2023-01-26T08:53:42;1.80;;;1.80;;
15629;SDS011;7914;50.842;0.166;2023-01-26T08:56:08;2.03;;;1.93;;
15629;SDS011;7914;50.842;0.166;2023-01-26T08:58:36;1.70;;;1.70;;
15629;SDS011;7914;50.842;0.166;2023-01-26T09:01:06;2.30;;;2.20;;
15629;SDS011;7914;50.842;0.166;2023-01-26T09:03:35;1.40;;;1.40;;
15629;SDS011;7914;50.842;0.166;2023-01-26T09:06:02;1.40;;;1.40;;
15629;SDS011;7914;50.842;0.166;2023-01-26T09:08:29;1.43;;;1.43;;
15629;SDS011;7914;50.842;0.166;2023-01-26T09:10:55;1.27;;;1.27;;
15629;SDS011;7914;50.842;0.166;2023-01-26T09:13:21;1.20;;;1.20;;
15629;SDS011;7914;50.842;0.166;2023-01-26T09:15:47;1.20;;;1.20;;
15629;SDS011;7914;50.842;0.166;2023-01-26T09:18:13;1.20;;;1.20;;
15629;SDS011;7914;50.842;0.166;2023-01-26T09:20:39;1.20;;;1.20;;
15629;SDS011;7914;50.842;0.166;2023-01-26T09:23:04;1.20;;;1.20;;
15629;SDS011;7914;50.842;0.166;2023-01-26T09:25:31;1.10;;;1.10;;
15629;SDS011;7914;50.842;0.166;2023-01-26T09:27:56;1.23;;;1.23;;
15629;SDS011;7914;50.842;0.166;2023-01-26T09:30:22;1.10;;;1.10;;
15629;SDS011;7914;50.842;0.166;2023-01-26T09:32:51;1.20;;;1.20;;
15629;SDS011;7914;50.842;0.166;2023-01-26T09:35:16;1.10;;;1.10;;
15629;SDS011;7914;50.842;0.166;2023-01-26T09:37:43;1.20;;;1.20;;
15629;SDS011;7914;50.842;0.166;2023-01-26T09:40:13;1.10;;;1.10;;
15629;SDS011;7914;50.842;0.166;2023-01-26T09:45:56;1.23;;;1.23;;
15629;SDS011;7914;50.842;0.166;2023-01-26T09:54:40;1.50;;;1.50;;
15629;SDS011;7914;50.842;0.166;2023-01-26T09:57:31;1.40;;;1.40;;
15629;SDS011;7914;50.842;0.166;2023-01-26T10:00:07;1.60;;;1.60;;
15629;SDS011;7914;50.842;0.166;2023-01-26T10:05:21;1.80;;;1.80;;
15629;SDS011;7914;50.842;0.166;2023-01-26T10:08:07;1.50;;;1.50;;
15629;SDS011;7914;50.842;0.166;2023-01-26T10:10:46;1.70;;;1.70;;
15629;SDS011;7914;50.842;0.166;2023-01-26T10:13:32;1.33;;;1.33;;
15629;SDS011;7914;50.842;0.166;2023-01-26T10:16:03;1.40;;;1.40;;
15629;SDS011;7914;50.842;0.166;2023-01-26T10:18:34;1.30;;;1.30;;
15629;SDS011;7914;50.842;0.166;2023-01-26T10:21:10;1.30;;;1.30;;
15629;SDS011;7914;50.842;0.166;2023-01-26T10:23:37;1.40;;;1.40;;
15629;SDS011;7914;50.842;0.166;2023-01-26T10:26:12;1.30;;;1.30;;
15629;SDS011;7914;50.842;0.166;2023-01-26T10:28:41;1.40;;;1.40;;
15629;SDS011;7914;50.842;0.166;2023-01-26T10:31:13;1.43;;;1.43;;
15629;SDS011;7914;50.842;0.166;2023-01-26T10:33:43;1.20;;;1.20;;
15629;SDS011;7914;50.842;0.166;2023-01-26T10:36:18;1.20;;;1.20;;
15629;SDS011;7914;50.842;0.166;2023-01-26T10:38:44;1.30;;;1.30;;
15629;SDS011;7914;50.842;0.166;2023-01-26T10:43:50;1.30;;;1.30;;
15629;SDS011;7914;50.842;0.166;2023-01-26T10:46:25;1.30;;;1.30;;
15629;SDS011;7914;50.842;0.166;2023-01-26T10:48:53;1.00;;;1.00;;
15629;SDS011;7914;50.842;0.166;2023-01-26T10:51:27;1.20;;;1.20;;
15629;SDS011;7914;50.842;0.166;2023-01-26T10:57:04;1.30;;;1.30;;
15629;SDS011;7914;50.842;0.166;2023-01-26T10:59:37;1.30;;;1.30;;
15629;SDS011;7914;50.842;0.166;2023-01-26T11:02:28;1.27;;;1.27;;
15629;SDS011;7914;50.842;0.166;2023-01-26T11:10:20;1.60;;;1.60;;
15629;SDS011;7914;50.842;0.166;2023-01-26T11:12:46;1.90;;;1.90;;
15629;SDS011;7914;50.842;0.166;2023-01-26T11:15:20;2.00;;;1.90;;
15629;SDS011;7914;50.842;0.166;2023-01-26T11:23:07;1.60;;;1.60;;
15629;SDS011;7914;50.842;0.166;2023-01-26T11:28:13;1.40;;;1.40;;
15629;SDS011;7914;50.842;0.166;2023-01-26T11:34:10;1.50;;;1.50;;
15629;SDS011;7914;50.842;0.166;2023-01-26T11:42:52;1.50;;;1.50;;
15629;SDS011;7914;50.842;0.166;2023-01-26T11:48:38;1.17;;;1.17;;
15629;SDS011;7914;50.842;0.166;2023-01-26T11:54:16;1.40;;;1.40;;
15629;SDS011;7914;50.842;0.166;2023-01-26T11:59:38;1.13;;;1.13;;
15629;SDS011;7914;50.842;0.166;2023-01-26T12:04:37;1.23;;;1.23;;
15629;SDS011;7914;50.842;0.166;2023-01-26T12:07:20;1.50;;;1.50;;
15629;SDS011;7914;50.842;0.166;2023-01-26T12:09:51;1.30;;;1.30;;
15629;SDS011;7914;50.842;0.166;2023-01-26T12:15:02;1.20;;;1.20;;
15629;SDS011;7914;50.842;0.166;2023-01-26T12:22:42;1.00;;;1.00;;
15629;SDS011;7914;50.842;0.166;2023-01-26T12:27:55;0.90;;;0.90;;
15629;SDS011;7914;50.842;0.166;2023-01-26T12:33:16;0.90;;;0.90;;
15629;SDS011;7914;50.842;0.166;2023-01-26T12:35:58;1.00;;;1.00;;
15629;SDS011;7914;50.842;0.166;2023-01-26T12:44:24;1.30;;;1.30;;
15629;SDS011;7914;50.842;0.166;2023-01-26T12:47:00;1.10;;;1.10;;
15629;SDS011;7914;50.842;0.166;2023-01-26T12:49:36;1.20;;;1.20;;
15629;SDS011;7914;50.842;0.166;2023-01-26T12:52:27;1.00;;;1.00;;
15629;SDS011;7914;50.842;0.166;2023-01-26T12:55:17;1.00;;;1.00;;
15629;SDS011;7914;50.842;0.166;2023-01-26T13:00:23;1.00;;;1.00;;
15629;SDS011;7914;50.842;0.166;2023-01-26T13:14:22;1.00;;;1.00;;
15629;SDS011;7914;50.842;0.166;2023-01-26T13:16:54;1.00;;;1.00;;
15629;SDS011;7914;50.842;0.166;2023-01-26T13:24:44;0.83;;;0.83;;
15629;SDS011;7914;50.842;0.166;2023-01-26T13:27:32;1.00;;;1.00;;
15629;SDS011;7914;50.842;0.166;2023-01-26T13:33:10;0.80;;;0.80;;
15629;SDS011;7914;50.842;0.166;2023-01-26T13:35:47;1.00;;;1.00;;
15629;SDS011;7914;50.842;0.166;2023-01-26T13:38:21;1.03;;;1.03;;
15629;SDS011;7914;50.842;0.166;2023-01-26T13:40:50;1.20;;;1.20;;
15629;SDS011;7914;50.842;0.166;2023-01-26T13:51:04;1.77;;;1.77;;
15629;SDS011;7914;50.842;0.166;2023-01-26T13:53:42;1.80;;;1.80;;
15629;SDS011;7914;50.842;0.166;2023-01-26T13:58:47;2.00;;;1.90;;
15629;SDS011;7914;50.842;0.166;2023-01-26T14:01:14;1.93;;;1.90;;
15629;SDS011;7914;50.842;0.166;2023-01-26T14:03:41;2.00;;;1.90;;
15629;SDS011;7914;50.842;0.166;2023-01-26T14:06:12;1.33;;;1.33;;
15629;SDS011;7914;50.842;0.166;2023-01-26T14:08:39;1.40;;;1.40;;
15629;SDS011;7914;50.842;0.166;2023-01-26T14:11:15;1.50;;;1.50;;
15629;SDS011;7914;50.842;0.166;2023-01-26T14:13:54;1.30;;;1.30;;
15629;SDS011;7914;50.842;0.166;2023-01-26T14:19:03;1.10;;;1.10;;
15629;SDS011;7914;50.842;0.166;2023-01-26T14:21:47;1.10;;;1.10;;
15629;SDS011;7914;50.842;0.166;2023-01-26T14:27:00;1.27;;;1.27;;
15629;SDS011;7914;50.842;0.166;2023-01-26T14:29:28;1.30;;;1.30;;
15629;SDS011;7914;50.842;0.166;2023-01-26T14:31:55;1.27;;;1.27;;
15629;SDS011;7914;50.842;0.166;2023-01-26T14:34:25;1.20;;;1.20;;
15629;SDS011;7914;50.842;0.166;2023-01-26T14:37:12;1.00;;;1.00;;
15629;SDS011;7914;50.842;0.166;2023-01-26T14:39:40;1.10;;;1.10;;
15629;SDS011;7914;50.842;0.166;2023-01-26T14:42:11;1.20;;;1.20;;
15629;SDS011;7914;50.842;0.166;2023-01-26T14:44:39;1.20;;;1.20;;
15629;SDS011;7914;50.842;0.166;2023-01-26T14:47:06;1.20;;;1.20;;
15629;SDS011;7914;50.842;0.166;2023-01-26T14:49:43;1.20;;;1.20;;
15629;SDS011;7914;50.842;0.166;2023-01-26T14:52:18;1.10;;;1.10;;
15629;SDS011;7914;50.842;0.166;2023-01-26T14:54:50;1.10;;;1.10;;
15629;SDS011;7914;50.842;0.166;2023-01-26T14:57:19;1.00;;;1.00;;
15629;SDS011;7914;50.842;0.166;2023-01-26T14:59:48;1.00;;;1.00;;
15629;SDS011;7914;50.842;0.166;2023-01-26T15:02:20;1.03;;;1.03;;
15629;SDS011;7914;50.842;0.166;2023-01-26T15:04:49;1.10;;;1.10;;
15629;SDS011;7914;50.842;0.166;2023-01-26T15:09:56;1.00;;;1.00;;
15629;SDS011;7914;50.842;0.166;2023-01-26T15:12:21;1.13;;;1.13;;
15629;SDS011;7914;50.842;0.166;2023-01-26T15:14:49;1.00;;;1.00;;
15629;SDS011;7914;50.842;0.166;2023-01-26T15:17:40;1.00;;;1.00;;
15629;SDS011;7914;50.842;0.166;2023-01-26T15:22:38;1.07;;;1.07;;
15629;SDS011;7914;50.842;0.166;2023-01-26T15:25:15;1.10;;;1.10;;
15629;SDS011;7914;50.842;0.166;2023-01-26T15:27:53;0.97;;;0.97;;
15629;SDS011;7914;50.842;0.166;2023-01-26T15:32:54;0.90;;;0.90;;
15629;SDS011;7914;50.842;0.166;2023-01-26T15:35:22;1.00;;;1.00;;
15629;SDS011;7914;50.842;0.166;2023-01-26T15:38:03;0.83;;;0.83;;
15629;SDS011;7914;50.842;0.166;2023-01-26T15:40:30;0.93;;;0.93;;
15629;SDS011;7914;50.842;0.166;2023-01-26T15:43:09;0.80;;;0.80;;
15629;SDS011;7914;50.842;0.166;2023-01-26T15:45:35;1.00;;;1.00;;
15629;SDS011;7914;50.842;0.166;2023-01-26T15:48:03;6.13;;;5.93;;
15629;SDS011;7914;50.842;0.166;2023-01-26T15:50:29;8.60;;;8.30;;
15629;SDS011;7914;50.842;0.166;2023-01-26T15:52:54;9.37;;;8.97;;
15629;SDS011;7914;50.842;0.166;2023-01-26T15:55:20;9.60;;;9.20;;
15629;SDS011;7914;50.842;0.166;2023-01-26T15:57:50;9.60;;;9.20;;
15629;SDS011;7914;50.842;0.166;2023-01-26T16:00:16;9.10;;;8.70;;
15629;SDS011;7914;50.842;0.166;2023-01-26T16:02:42;8.00;;;7.70;;
15629;SDS011;7914;50.842;0.166;2023-01-26T16:05:15;6.90;;;6.60;;
15629;SDS011;7914;50.842;0.166;2023-01-26T16:07:43;6.33;;;6.13;;
15629;SDS011;7914;50.842;0.166;2023-01-26T16:10:09;5.47;;;5.27;;
15629;SDS011;7914;50.842;0.166;2023-01-26T16:12:35;4.90;;;4.70;;
15629;SDS011;7914;50.842;0.166;2023-01-26T16:15:01;4.90;;;4.70;;
15629;SDS011;7914;50.842;0.166;2023-01-26T16:17:27;4.10;;;4.00;;
15629;SDS011;7914;50.842;0.166;2023-01-26T16:19:53;4.10;;;4.00;;
15629;SDS011;7914;50.842;0.166;2023-01-26T16:22:18;3.80;;;3.70;;
15629;SDS011;7914;50.842;0.166;2023-01-26T16:24:45;3.53;;;3.43;;
15629;SDS011;7914;50.842;0.166;2023-01-26T16:27:10;3.27;;;3.17;;
15629;SDS011;7914;50.842;0.166;2023-01-26T16:29:36;2.80;;;2.70;;
15629;SDS011;7914;50.842;0.166;2023-01-26T16:32:04;2.50;;;2.40;;
15629;SDS011;7914;50.842;0.166;2023-01-26T16:34:46;2.20;;;2.10;;
15629;SDS011;7914;50.842;0.166;2023-01-26T16:37:11;2.30;;;2.20;;
15629;SDS011;7914;50.842;0.166;2023-01-26T16:39:37;1.67;;;1.67;;
15629;SDS011;7914;50.842;0.166;2023-01-26T16:42:03;1.60;;;1.60;;
15629;SDS011;7914;50.842;0.166;2023-01-26T16:44:28;1.50;;;1.50;;
15629;SDS011;7914;50.842;0.166;2023-01-26T16:46:54;1.47;;;1.47;;
15629;SDS011;7914;50.842;0.166;2023-01-26T16:49:20;1.20;;;1.20;;
15629;SDS011;7914;50.842;0.166;2023-01-26T16:51:46;1.30;;;1.30;;
15629;SDS011;7914;50.842;0.166;2023-01-26T16:54:11;1.10;;;1.10;;
15629;SDS011;7914;50.842;0.166;2023-01-26T16:56:37;1.00;;;1.00;;
15629;SDS011;7914;50.842;0.166;2023-01-26T16:59:03;1.00;;;1.00;;
15629;SDS011;7914;50.842;0.166;2023-01-26T17:01:34;1.20;;;1.20;;
15629;SDS011;7914;50.842;0.166;2023-01-26T17:04:01;1.20;;;1.20;;
15629;SDS011;7914;50.842;0.166;2023-01-26T17:06:27;1.00;;;1.00;;
15629;SDS011;7914;50.842;0.166;2023-01-26T17:08:53;1.30;;;1.30;;
15629;SDS011;7914;50.842;0.166;2023-01-26T17:11:20;1.40;;;1.40;;
15629;SDS011;7914;50.842;0.166;2023-01-26T17:13:48;1.17;;;1.17;;
15629;SDS011;7914;50.842;0.166;2023-01-26T17:16:18;1.20;;;1.20;;
15629;SDS011;7914;50.842;0.166;2023-01-26T17:18:46;1.27;;;1.27;;
15629;SDS011;7914;50.842;0.166;2023-01-26T17:21:13;1.20;;;1.20;;